createdAt,value
2018-08-07T00:01:14.951Z,25.23
2018-08-07T00:03:44.361Z,25.18
2018-08-07T00:06:15.466Z,25.16
2018-08-07T00:08:46.229Z,25.17
2018-08-07T00:11:16.392Z,25.17
2018-08-07T00:13:45.755Z,25.09
2018-08-07T00:16:15.703Z,25.09
2018-08-07T00:18:46.319Z,25.15
2018-08-07T00:21:17.380Z,25.09
2018-08-07T00:23:47.827Z,25.06
2018-08-07T00:26:18.064Z,24.92
2018-08-07T00:28:47.845Z,24.92
2018-08-07T00:31:18.999Z,24.80
2018-08-07T00:33:48.892Z,24.81
2018-08-07T00:36:18.226Z,25.00
2018-08-07T00:38:47.799Z,25.00
2018-08-07T00:41:18.236Z,24.95
2018-08-07T00:43:47.621Z,24.83
2018-08-07T00:46:16.964Z,24.65
2018-08-07T00:48:47.047Z,24.51
2018-08-07T00:51:17.019Z,24.52
2018-08-07T00:53:46.799Z,24.49
2018-08-07T00:56:16.708Z,24.50
2018-08-07T00:58:46.392Z,24.58
2018-08-07T01:01:15.841Z,24.59
2018-08-07T01:03:47.470Z,24.54
2018-08-07T01:06:18.090Z,24.52
2018-08-07T01:08:47.684Z,24.35
2018-08-07T01:11:17.573Z,24.27
2018-08-07T01:13:48.211Z,24.24
2018-08-07T01:16:19.474Z,24.17
2018-08-07T01:18:49.655Z,24.12
2018-08-07T01:21:19.600Z,24.18
2018-08-07T01:23:49.015Z,24.00
2018-08-07T01:26:18.369Z,24.18
2018-08-07T01:28:47.963Z,24.14
2018-08-07T01:31:17.966Z,23.86
2018-08-07T01:33:47.676Z,23.96
2018-08-07T01:36:17.485Z,23.84
2018-08-07T01:38:47.751Z,23.69
2018-08-07T01:41:17.147Z,23.72
2018-08-07T01:43:47.782Z,23.84
2018-08-07T01:46:17.197Z,23.90
2018-08-07T01:48:46.851Z,23.83
2018-08-07T01:51:17.180Z,23.70
2018-08-07T01:53:46.982Z,23.31
2018-08-07T01:56:16.325Z,23.48
2018-08-07T01:58:46.883Z,23.59
2018-08-07T02:01:17.495Z,23.59
2018-08-07T02:03:46.908Z,23.63
2018-08-07T02:06:16.945Z,23.45
2018-08-07T02:08:46.341Z,23.25
2018-08-07T02:11:17.920Z,23.44
2018-08-07T02:13:47.339Z,23.18
2018-08-07T02:16:17.750Z,23.16
2018-08-07T02:18:47.203Z,23.13
2018-08-07T02:21:17.741Z,23.11
2018-08-07T02:23:47.137Z,22.92
2018-08-07T02:26:17.924Z,23.10
2018-08-07T02:28:47.850Z,22.85
2018-08-07T02:31:17.839Z,22.96
2018-08-07T02:33:47.196Z,22.95
2018-08-07T02:36:17.040Z,23.00
2018-08-07T02:38:46.758Z,23.02
2018-08-07T02:41:21.779Z,22.83
2018-08-07T02:43:51.919Z,22.87
2018-08-07T02:46:21.335Z,22.89
2018-08-07T02:48:50.799Z,23.03
2018-08-07T02:51:20.620Z,22.98
2018-08-07T02:53:50.692Z,22.92
2018-08-07T02:56:20.281Z,22.61
2018-08-07T02:58:50.069Z,22.63
2018-08-07T03:01:19.673Z,22.60
2018-08-07T03:03:49.359Z,22.57
2018-08-07T03:06:18.726Z,22.40
2018-08-07T03:08:48.234Z,22.43
2018-08-07T03:11:18.045Z,22.46
2018-08-07T03:13:47.438Z,22.14
2018-08-07T03:16:17.210Z,22.32
2018-08-07T03:18:46.586Z,22.14
2018-08-07T03:21:16.301Z,22.06
2018-08-07T03:23:48.543Z,22.20
2018-08-07T03:26:18.777Z,22.36
2018-08-07T03:28:48.525Z,22.39
2018-08-07T03:31:18.932Z,22.25
2018-08-07T03:33:48.880Z,22.29
2018-08-07T03:36:19.893Z,22.27
2018-08-07T03:38:49.620Z,22.34
2018-08-07T03:41:19.238Z,22.42
2018-08-07T03:43:49.209Z,22.24
2018-08-07T03:46:18.717Z,22.22
2018-08-07T03:48:48.064Z,22.23
2018-08-07T03:51:17.471Z,22.12
2018-08-07T03:53:46.833Z,21.88
2018-08-07T03:56:16.200Z,21.95
2018-08-07T03:58:46.019Z,21.79
2018-08-07T04:01:16.327Z,21.79
2018-08-07T04:03:45.900Z,21.96
2018-08-07T04:06:15.615Z,21.83
2018-08-07T04:08:45.293Z,21.93
2018-08-07T04:11:14.681Z,21.88
2018-08-07T04:13:44.027Z,21.71
2018-08-07T04:16:13.767Z,21.73
2018-08-07T04:18:43.100Z,21.71
2018-08-07T04:21:12.951Z,21.77
2018-08-07T04:23:42.638Z,21.47
2018-08-07T04:26:12.198Z,21.28
2018-08-07T04:28:41.958Z,21.47
2018-08-07T04:31:11.724Z,21.41
2018-08-07T04:33:41.270Z,21.34
2018-08-07T04:36:11.124Z,21.42
2018-08-07T04:38:40.483Z,21.41
2018-08-07T04:41:09.873Z,21.50
2018-08-07T04:43:40.224Z,21.53
2018-08-07T04:46:10.089Z,21.56
2018-08-07T04:48:40.202Z,21.63
2018-08-07T04:51:11.279Z,21.51
2018-08-07T04:53:40.722Z,21.53
2018-08-07T04:56:13.138Z,21.69
2018-08-07T04:58:42.730Z,21.80
2018-08-07T05:01:12.222Z,21.76
2018-08-07T05:03:41.562Z,21.90
2018-08-07T05:06:10.936Z,21.96
2018-08-07T05:08:40.578Z,21.99
2018-08-07T05:11:09.973Z,21.96
2018-08-07T05:13:39.913Z,22.05
2018-08-07T05:16:09.316Z,22.03
2018-08-07T05:18:40.458Z,22.06
2018-08-07T05:21:10.523Z,22.04
2018-08-07T05:23:39.873Z,22.10
2018-08-07T05:26:09.590Z,22.14
2018-08-07T05:28:39.397Z,22.14
2018-08-07T05:31:09.450Z,22.20
2018-08-07T05:33:43.849Z,22.25
2018-08-07T05:36:14.227Z,22.29
2018-08-07T05:38:44.883Z,22.41
2018-08-07T05:41:14.721Z,22.59
2018-08-07T05:43:44.742Z,22.70
2018-08-07T05:46:14.159Z,22.67
2018-08-07T05:48:43.882Z,22.91
2018-08-07T05:51:13.549Z,23.01
2018-08-07T05:53:42.963Z,23.16
2018-08-07T05:56:12.327Z,23.19
2018-08-07T05:58:41.854Z,23.31
2018-08-07T06:01:12.423Z,23.43
2018-08-07T06:03:41.820Z,23.52
2018-08-07T06:06:11.561Z,23.66
2018-08-07T06:08:41.398Z,23.74
2018-08-07T06:11:11.109Z,23.63
2018-08-07T06:13:41.001Z,23.79
2018-08-07T06:16:10.849Z,23.88
2018-08-07T06:18:40.967Z,23.86
2018-08-07T06:21:11.162Z,24.00
2018-08-07T06:23:40.514Z,24.20
2018-08-07T06:26:09.970Z,24.10
2018-08-07T06:28:39.695Z,24.41
2018-08-07T06:31:09.665Z,24.69
2018-08-07T06:33:39.880Z,25.29
2018-08-07T06:36:09.245Z,25.59
2018-08-07T06:38:39.865Z,25.94
2018-08-07T06:41:09.656Z,25.97
2018-08-07T06:43:40.510Z,26.10
2018-08-07T06:46:09.872Z,26.41
2018-08-07T06:48:40.593Z,26.69
2018-08-07T06:51:10.622Z,26.72
2018-08-07T06:53:40.618Z,26.77
2018-08-07T06:56:11.014Z,26.74
2018-08-07T06:58:41.369Z,26.85
2018-08-07T07:01:10.799Z,26.58
2018-08-07T07:03:40.566Z,26.96
2018-08-07T07:06:10.645Z,27.29
2018-08-07T07:08:40.461Z,27.00
2018-08-07T07:11:12.502Z,27.02
2018-08-07T07:13:42.274Z,27.27
2018-08-07T07:16:12.036Z,27.20
2018-08-07T07:18:41.854Z,27.43
2018-08-07T07:21:11.251Z,27.22
2018-08-07T07:23:41.185Z,27.31
2018-08-07T07:26:11.277Z,27.29
2018-08-07T07:28:40.867Z,27.13
2018-08-07T07:31:10.533Z,27.54
2018-08-07T07:33:40.936Z,27.48
2018-08-07T07:36:10.324Z,27.49
2018-08-07T07:38:40.871Z,27.66
2018-08-07T07:41:15.496Z,27.66
2018-08-07T07:43:47.337Z,27.48
2018-08-07T07:46:17.867Z,27.74
2018-08-07T07:48:48.985Z,27.90
2018-08-07T07:51:19.610Z,27.73
2018-08-07T07:53:49.697Z,27.77
2018-08-07T07:56:19.794Z,28.06
2018-08-07T07:58:49.663Z,27.91
2018-08-07T08:01:20.975Z,28.25
2018-08-07T08:03:50.770Z,28.25
2018-08-07T08:06:20.318Z,28.33
2018-08-07T08:08:49.746Z,28.61
2018-08-07T08:11:19.173Z,28.48
2018-08-07T08:13:49.197Z,28.39
2018-08-07T08:16:18.803Z,28.67
2018-08-07T08:18:48.143Z,28.46
2018-08-07T08:21:18.184Z,28.40
2018-08-07T08:23:47.970Z,28.56
2018-08-07T08:26:17.343Z,28.87
2018-08-07T08:28:47.165Z,29.17
2018-08-07T08:31:16.824Z,29.28
2018-08-07T08:33:47.266Z,29.25
2018-08-07T08:36:17.117Z,29.38
2018-08-07T08:38:46.780Z,29.56
2018-08-07T08:41:16.984Z,29.71
2018-08-07T08:43:46.632Z,29.86
2018-08-07T08:46:16.509Z,29.45
2018-08-07T08:48:46.257Z,29.44
2018-08-07T08:51:15.684Z,29.89
2018-08-07T08:53:45.187Z,30.09
2018-08-07T08:56:15.384Z,30.30
2018-08-07T08:58:44.783Z,30.32
2018-08-07T09:01:14.447Z,30.14
2018-08-07T09:03:43.862Z,30.29
2018-08-07T09:06:13.514Z,30.54
2018-08-07T09:08:42.924Z,30.47
2018-08-07T09:11:12.818Z,30.48
2018-08-07T09:13:42.490Z,30.55
2018-08-07T09:16:14.509Z,30.79
2018-08-07T09:18:44.525Z,31.04
2018-08-07T09:21:13.902Z,31.46
2018-08-07T09:23:43.869Z,31.68
2018-08-07T09:26:14.294Z,31.78
2018-08-07T09:28:43.960Z,31.78
2018-08-07T09:31:14.016Z,31.73
2018-08-07T09:33:43.449Z,31.80
2018-08-07T09:36:12.908Z,31.79
2018-08-07T09:38:42.565Z,31.66
2018-08-07T09:41:12.451Z,31.98
2018-08-07T09:43:42.203Z,31.77
2018-08-07T09:46:12.059Z,32.07
2018-08-07T09:48:41.459Z,32.44
2018-08-07T09:51:11.171Z,32.45
2018-08-07T09:53:41.594Z,32.51
2018-08-07T09:56:12.026Z,32.28
2018-08-07T09:58:41.676Z,32.59
2018-08-07T10:01:17.242Z,32.64
2018-08-07T10:03:47.273Z,32.55
2018-08-07T10:06:16.601Z,32.59
2018-08-07T10:08:46.986Z,32.52
2018-08-07T10:11:16.355Z,32.70
2018-08-07T10:13:45.706Z,32.96
2018-08-07T10:16:15.325Z,32.84
2018-08-07T10:18:44.705Z,33.09
2018-08-07T10:21:14.072Z,33.01
2018-08-07T10:23:44.329Z,33.54
2018-08-07T10:26:14.885Z,33.69
2018-08-07T10:28:44.757Z,33.86
2018-08-07T10:31:14.686Z,33.73
2018-08-07T10:33:44.489Z,33.48
2018-08-07T10:36:13.794Z,33.79
2018-08-07T10:38:43.328Z,34.22
2018-08-07T10:41:12.739Z,33.82
2018-08-07T10:43:42.300Z,34.20
2018-08-07T10:46:12.673Z,34.64
2018-08-07T10:48:42.940Z,34.51
2018-08-07T10:51:13.159Z,34.48
2018-08-07T10:53:44.044Z,34.59
2018-08-07T10:56:13.686Z,34.82
2018-08-07T10:58:43.086Z,34.70
2018-08-07T11:01:12.968Z,33.56
2018-08-07T11:03:43.660Z,34.43
2018-08-07T11:06:12.991Z,35.00
2018-08-07T11:08:42.405Z,34.69
2018-08-07T11:11:11.741Z,34.78
2018-08-07T11:13:41.195Z,34.71
2018-08-07T11:16:10.583Z,34.53
2018-08-07T11:18:42.999Z,34.62
2018-08-07T11:21:12.714Z,34.91
2018-08-07T11:23:43.969Z,35.15
2018-08-07T11:26:13.333Z,34.95
2018-08-07T11:28:42.710Z,35.34
2018-08-07T11:31:12.869Z,35.52
2018-08-07T11:33:44.531Z,35.44
2018-08-07T11:36:15.196Z,35.47
2018-08-07T11:38:45.143Z,35.32
2018-08-07T11:41:14.559Z,35.93
2018-08-07T11:43:43.872Z,36.06
2018-08-07T11:46:13.799Z,35.40
2018-08-07T11:48:43.569Z,35.33
2018-08-07T11:51:12.994Z,36.28
2018-08-07T11:53:42.412Z,36.03
2018-08-07T11:56:12.827Z,36.30
2018-08-07T11:58:42.733Z,36.21
2018-08-07T12:01:12.460Z,36.52
2018-08-07T12:03:42.304Z,36.70
2018-08-07T12:06:12.772Z,36.75
2018-08-07T12:08:42.282Z,36.12
2018-08-07T12:11:11.661Z,36.54
2018-08-07T12:13:41.198Z,36.36
2018-08-07T12:16:10.599Z,36.08
2018-08-07T12:18:40.777Z,36.45
2018-08-07T12:21:10.152Z,35.73
2018-08-07T12:23:39.541Z,36.03
2018-08-07T12:26:09.463Z,36.23
2018-08-07T12:28:40.209Z,36.55
2018-08-07T12:31:09.549Z,36.61
2018-08-07T12:33:39.357Z,36.74
2018-08-07T12:36:08.808Z,36.65
2018-08-07T12:38:38.194Z,36.45
2018-08-07T12:41:10.735Z,35.95
2018-08-07T12:43:40.081Z,36.13
2018-08-07T12:46:10.552Z,36.05
2018-08-07T12:48:39.917Z,36.49
2018-08-07T12:51:09.637Z,36.71
2018-08-07T12:53:39.370Z,36.25
2018-08-07T12:56:09.159Z,37.11
2018-08-07T12:58:38.833Z,37.07
2018-08-07T13:01:09.689Z,37.41
2018-08-07T13:03:39.031Z,37.36
2018-08-07T13:06:09.118Z,37.20
2018-08-07T13:08:38.878Z,37.08
2018-08-07T13:11:08.606Z,36.67
2018-08-07T13:13:38.210Z,37.13
2018-08-07T13:16:08.067Z,36.90
2018-08-07T13:18:37.701Z,37.08
2018-08-07T13:21:07.747Z,37.49
2018-08-07T13:23:37.125Z,36.74
2018-08-07T13:26:06.610Z,37.06
2018-08-07T13:28:36.043Z,36.87
2018-08-07T13:31:05.739Z,36.18
2018-08-07T13:33:35.879Z,35.90
2018-08-07T13:36:05.961Z,36.80
2018-08-07T13:38:35.431Z,37.47
2018-08-07T13:41:04.789Z,37.50
2018-08-07T13:43:34.179Z,36.35
2018-08-07T13:46:03.552Z,36.30
2018-08-07T13:48:34.150Z,36.94
2018-08-07T13:51:03.611Z,36.40
2018-08-07T13:53:32.983Z,36.85
2018-08-07T13:56:02.465Z,36.41
2018-08-07T13:58:32.326Z,36.16
2018-08-07T14:01:01.710Z,36.58
2018-08-07T14:03:32.021Z,37.09
2018-08-07T14:06:01.628Z,36.65
2018-08-07T14:08:30.994Z,36.94
2018-08-07T14:11:00.340Z,36.42
2018-08-07T14:13:29.793Z,36.15
2018-08-07T14:15:59.193Z,36.53
2018-08-07T14:18:28.916Z,36.20
2018-08-07T14:20:58.266Z,36.64
2018-08-07T14:23:27.643Z,36.33
2018-08-07T14:25:57.224Z,36.00
2018-08-07T14:28:26.918Z,37.04
2018-08-07T14:30:56.319Z,37.23
2018-08-07T14:33:25.706Z,36.65
2018-08-07T14:35:55.085Z,36.27
2018-08-07T14:38:24.903Z,35.81
2018-08-07T14:40:54.290Z,36.15
2018-08-07T14:43:24.616Z,36.45
2018-08-07T14:45:54.462Z,36.51
2018-08-07T14:48:25.265Z,36.89
2018-08-07T14:50:54.846Z,37.17
2018-08-07T14:53:24.222Z,36.56
2018-08-07T14:55:54.356Z,36.59
2018-08-07T14:58:24.386Z,36.86
2018-08-07T15:00:54.461Z,36.73
2018-08-07T15:03:25.228Z,36.64
2018-08-07T15:05:56.044Z,36.23
2018-08-07T15:08:25.638Z,35.84
2018-08-07T15:10:55.016Z,35.76
2018-08-07T15:13:24.661Z,36.19
2018-08-07T15:15:55.266Z,36.57
2018-08-07T15:18:24.920Z,35.90
2018-08-07T15:20:54.569Z,36.23
2018-08-07T15:23:24.720Z,36.19
2018-08-07T15:25:54.874Z,36.31
2018-08-07T15:28:24.603Z,36.13
2018-08-07T15:30:53.958Z,35.88
2018-08-07T15:33:23.671Z,36.36
2018-08-07T15:35:54.261Z,36.02
2018-08-07T15:38:24.289Z,35.25
2018-08-07T15:40:53.721Z,35.72
2018-08-07T15:43:23.548Z,35.32
2018-08-07T15:45:53.760Z,35.52
2018-08-07T15:48:23.401Z,35.06
2018-08-07T15:50:52.823Z,34.72
2018-08-07T15:53:25.567Z,34.69
2018-08-07T15:55:57.366Z,34.63
2018-08-07T15:58:28.667Z,34.70
2018-08-07T16:01:03.667Z,34.62
2018-08-07T16:03:38.028Z,34.51
2018-08-07T16:06:11.698Z,34.32
2018-08-07T16:08:43.906Z,34.38
2018-08-07T16:11:18.126Z,34.37
2018-08-07T16:13:52.167Z,34.47
2018-08-07T16:16:24.401Z,34.59
2018-08-07T16:18:56.634Z,34.65
2018-08-07T16:21:31.438Z,34.77
2018-08-07T16:24:03.041Z,34.61
2018-08-07T16:26:35.977Z,34.63
2018-08-07T16:29:08.416Z,34.13
2018-08-07T16:31:39.849Z,34.18
2018-08-07T16:34:11.286Z,34.22
2018-08-07T16:36:47.048Z,34.06
2018-08-07T16:39:18.537Z,33.82
2018-08-07T16:41:51.418Z,33.66
2018-08-07T16:44:21.867Z,33.59
2018-08-07T16:46:51.806Z,33.62
2018-08-07T16:49:21.136Z,33.67
2018-08-07T16:51:50.752Z,33.72
2018-08-07T16:54:20.103Z,33.74
2018-08-07T16:56:49.478Z,33.76
2018-08-07T16:59:19.324Z,33.71
2018-08-07T17:01:48.663Z,33.72
2018-08-07T17:04:18.649Z,33.53
2018-08-07T17:06:48.774Z,33.44
2018-08-07T17:09:18.420Z,33.48
2018-08-07T17:11:47.806Z,33.49
2018-08-07T17:14:17.138Z,33.47
2018-08-07T17:16:46.506Z,33.23
2018-08-07T17:19:15.934Z,33.15
2018-08-07T17:21:45.690Z,33.31
2018-08-07T17:24:17.452Z,33.46
2018-08-07T17:26:48.761Z,33.60
2018-08-07T17:29:18.152Z,32.28
2018-08-07T17:31:47.601Z,31.04
2018-08-07T17:34:17.659Z,30.26
2018-08-07T17:36:48.242Z,29.47
2018-08-07T17:39:18.000Z,29.08
2018-08-07T17:41:48.409Z,28.96
2018-08-07T17:44:18.180Z,29.11
2018-08-07T17:46:47.922Z,29.23
2018-08-07T17:49:19.507Z,28.93
2018-08-07T17:51:49.350Z,28.64
2018-08-07T17:54:19.052Z,28.57
2018-08-07T17:56:49.398Z,28.12
2018-08-07T17:59:20.131Z,28.13
2018-08-07T18:01:49.555Z,28.17
2018-08-07T18:04:19.887Z,28.13
2018-08-07T18:06:50.853Z,28.07
2018-08-07T18:09:20.272Z,27.85
2018-08-07T18:11:51.692Z,28.08
2018-08-07T18:14:21.465Z,28.51
2018-08-07T18:16:52.331Z,28.61
2018-08-07T18:19:22.123Z,28.89
2018-08-07T18:21:51.574Z,29.29
2018-08-07T18:24:24.939Z,29.30
2018-08-07T18:26:54.886Z,27.80
2018-08-07T18:29:24.608Z,25.93
2018-08-07T18:31:53.947Z,24.66
2018-08-07T18:34:23.556Z,23.95
2018-08-07T18:36:52.924Z,24.58
2018-08-07T18:39:22.278Z,24.73
2018-08-07T18:41:51.984Z,24.90
2018-08-07T18:44:24.131Z,25.16
2018-08-07T18:46:53.549Z,25.25
2018-08-07T18:49:23.027Z,25.44
2018-08-07T18:51:53.382Z,25.47
2018-08-07T18:54:22.727Z,25.26
2018-08-07T18:56:53.105Z,24.64
2018-08-07T18:59:22.969Z,24.23
2018-08-07T19:01:53.245Z,24.32
2018-08-07T19:04:24.518Z,24.80
2018-08-07T19:07:03.081Z,23.84
2018-08-07T19:09:36.595Z,24.39
2018-08-07T19:12:08.469Z,24.37
2018-08-07T19:14:40.160Z,24.31
2018-08-07T19:17:12.329Z,23.99
2018-08-07T19:19:46.116Z,24.50
2018-08-07T19:22:21.960Z,24.40
2018-08-07T19:24:55.866Z,24.18
2018-08-07T19:27:27.509Z,24.23
2018-08-07T19:30:02.960Z,24.19
2018-08-07T19:32:45.800Z,23.85
2018-08-07T19:40:51.159Z,23.25
2018-08-07T19:43:25.277Z,24.08
2018-08-07T19:46:01.289Z,24.47
2018-08-07T19:48:32.493Z,24.64
2018-08-07T19:51:04.473Z,24.64
2018-08-07T19:53:36.121Z,24.37
2018-08-07T19:56:08.160Z,24.13
2018-08-07T19:58:37.802Z,24.10
2018-08-07T20:01:12.536Z,24.77
2018-08-07T20:03:47.587Z,25.33
2018-08-07T20:08:06.213Z,25.99
2018-08-07T20:10:38.422Z,24.84
2018-08-07T20:13:14.222Z,23.23
2018-08-07T20:15:45.490Z,24.26
2018-08-07T20:18:16.097Z,24.27
2018-08-07T20:20:45.843Z,24.35
2018-08-07T20:23:15.818Z,24.75
2018-08-07T20:25:45.269Z,24.38
2018-08-07T20:28:14.708Z,24.12
2018-08-07T20:30:45.380Z,23.92
2018-08-07T20:33:15.509Z,23.92
2018-08-07T20:35:46.674Z,23.89
2018-08-07T20:38:19.918Z,23.52
2018-08-07T20:40:51.952Z,23.64
2018-08-07T20:43:22.129Z,23.76
2018-08-07T20:45:54.717Z,23.91
2018-08-07T20:48:25.059Z,23.93
2018-08-07T20:50:54.388Z,23.72
2018-08-07T20:53:23.754Z,23.81
2018-08-07T20:55:53.156Z,23.83
2018-08-07T20:58:25.165Z,23.53
2018-08-07T21:00:54.766Z,23.51
2018-08-07T21:03:24.507Z,23.45
2018-08-07T21:05:54.943Z,23.93
2018-08-07T21:08:24.344Z,24.08
2018-08-07T21:10:53.708Z,23.81
2018-08-07T21:13:23.896Z,23.98
2018-08-07T21:15:54.720Z,24.49
2018-08-07T21:18:24.165Z,24.35
2018-08-07T21:20:53.522Z,24.16
2018-08-07T21:23:22.866Z,24.16
2018-08-07T21:25:52.248Z,24.42
2018-08-07T21:28:24.059Z,24.76
2018-08-07T21:30:53.480Z,24.58
2018-08-07T21:33:22.836Z,24.16
2018-08-07T21:35:52.149Z,24.49
2018-08-07T21:38:21.738Z,24.54
2018-08-07T21:40:51.117Z,24.55
2018-08-07T21:43:20.442Z,24.66
2018-08-07T21:45:49.889Z,24.76
2018-08-07T21:48:19.348Z,24.36
2018-08-07T21:50:48.972Z,24.41
2018-08-07T21:53:19.541Z,24.38
2018-08-07T21:55:49.365Z,24.21
2018-08-07T21:58:23.648Z,23.84
2018-08-07T22:00:54.669Z,23.48
2018-08-07T22:03:24.999Z,23.69
2018-08-07T22:05:56.797Z,24.20
2018-08-07T22:08:26.947Z,24.41
2018-08-07T22:10:57.654Z,24.43
2018-08-07T22:13:27.569Z,24.26
2018-08-07T22:15:58.114Z,24.20
2018-08-07T22:18:27.721Z,24.17
2018-08-07T22:20:58.790Z,23.76
2018-08-07T22:23:28.645Z,23.82
2018-08-07T22:25:58.337Z,23.66
2018-08-07T22:28:27.723Z,23.77
2018-08-07T22:30:57.129Z,23.01
2018-08-07T22:33:27.181Z,23.02
2018-08-07T22:35:56.796Z,23.28
2018-08-07T22:38:26.880Z,23.51
2018-08-07T22:40:56.618Z,23.98
2018-08-07T22:43:27.106Z,24.26
2018-08-07T22:46:00.701Z,24.64
2018-08-07T22:48:30.884Z,24.49
2018-08-07T22:51:00.921Z,24.66
2018-08-07T22:53:33.815Z,24.68
2018-08-07T22:56:05.711Z,24.67
2018-08-07T22:58:37.327Z,24.82
2018-08-07T23:01:09.202Z,24.63
2018-08-07T23:03:39.906Z,24.62
2018-08-07T23:06:11.720Z,24.58
2018-08-07T23:08:41.297Z,24.57
2018-08-07T23:11:11.858Z,24.64
2018-08-07T23:13:42.760Z,24.23
2018-08-07T23:16:13.064Z,24.03
2018-08-07T23:18:43.284Z,24.65
2018-08-07T23:21:17.583Z,24.84
2018-08-07T23:23:48.523Z,24.94
2018-08-07T23:26:21.198Z,25.01
2018-08-07T23:28:53.084Z,25.14
2018-08-07T23:31:23.587Z,24.97
2018-08-07T23:33:53.638Z,25.15
2018-08-07T23:36:25.548Z,24.99
2018-08-07T23:38:56.034Z,24.46
2018-08-07T23:41:29.362Z,24.10
2018-08-07T23:43:59.108Z,23.69
2018-08-07T23:46:29.552Z,23.61
2018-08-07T23:48:58.890Z,23.36
2018-08-07T23:51:28.693Z,23.52
2018-08-07T23:53:58.179Z,24.06
2018-08-07T23:56:28.553Z,24.16
2018-08-07T23:58:57.927Z,24.32
